sensor_id;sensor_type;location;lat;lon;timestamp;P1;durP1;ratioP1;P2;durP2;ratioP2
66628;SDS011;53532;53.084;6.352;2022-08-21T00:02:21;14.63;;;7.10;;
66628;SDS011;53532;53.084;6.352;2022-08-21T00:04:48;13.38;;;6.25;;
66628;SDS011;53532;53.084;6.352;2022-08-21T00:07:15;11.40;;;7.05;;
66628;SDS011;53532;53.084;6.352;2022-08-21T00:09:43;10.07;;;6.20;;
66628;SDS011;53532;53.084;6.352;2022-08-21T00:12:09;10.18;;;6.43;;
66628;SDS011;53532;53.084;6.352;2022-08-21T00:14:35;13.73;;;7.25;;
66628;SDS011;53532;53.084;6.352;2022-08-21T00:17:02;11.68;;;6.80;;
66628;SDS011;53532;53.084;6.352;2022-08-21T00:19:29;11.63;;;6.72;;
66628;SDS011;53532;53.084;6.352;2022-08-21T00:21:55;12.73;;;7.22;;
66628;SDS011;53532;53.084;6.352;2022-08-21T00:24:22;13.88;;;7.53;;
66628;SDS011;53532;53.084;6.352;2022-08-21T00:26:49;12.48;;;7.55;;
66628;SDS011;53532;53.084;6.352;2022-08-21T00:29:16;12.98;;;7.28;;
66628;SDS011;53532;53.084;6.352;2022-08-21T00:31:43;11.57;;;7.70;;
66628;SDS011;53532;53.084;6.352;2022-08-21T00:34:10;10.75;;;7.20;;
66628;SDS011;53532;53.084;6.352;2022-08-21T00:36:36;11.73;;;7.78;;
66628;SDS011;53532;53.084;6.352;2022-08-21T00:39:03;11.85;;;7.90;;
66628;SDS011;53532;53.084;6.352;2022-08-21T00:41:29;14.75;;;8.07;;
66628;SDS011;53532;53.084;6.352;2022-08-21T00:43:57;11.20;;;7.07;;
66628;SDS011;53532;53.084;6.352;2022-08-21T00:46:23;10.65;;;7.72;;
66628;SDS011;53532;53.084;6.352;2022-08-21T00:48:49;10.10;;;7.65;;
66628;SDS011;53532;53.084;6.352;2022-08-21T00:51:17;11.75;;;7.47;;
66628;SDS011;53532;53.084;6.352;2022-08-21T00:53:48;11.60;;;8.15;;
66628;SDS011;53532;53.084;6.352;2022-08-21T00:56:15;12.98;;;8.52;;
66628;SDS011;53532;53.084;6.352;2022-08-21T00:58:41;12.13;;;7.25;;
66628;SDS011;53532;53.084;6.352;2022-08-21T01:01:10;11.82;;;7.60;;
66628;SDS011;53532;53.084;6.352;2022-08-21T01:03:36;11.88;;;7.65;;
66628;SDS011;53532;53.084;6.352;2022-08-21T01:06:02;11.20;;;7.60;;
66628;SDS011;53532;53.084;6.352;2022-08-21T01:08:29;11.90;;;8.02;;
66628;SDS011;53532;53.084;6.352;2022-08-21T01:10:55;11.30;;;8.07;;
66628;SDS011;53532;53.084;6.352;2022-08-21T01:13:22;12.13;;;7.70;;
66628;SDS011;53532;53.084;6.352;2022-08-21T01:15:50;13.45;;;8.52;;
66628;SDS011;53532;53.084;6.352;2022-08-21T01:18:19;13.45;;;9.10;;
66628;SDS011;53532;53.084;6.352;2022-08-21T01:20:56;12.82;;;8.45;;
66628;SDS011;53532;53.084;6.352;2022-08-21T01:23:23;13.70;;;8.05;;
66628;SDS011;53532;53.084;6.352;2022-08-21T01:25:49;15.18;;;8.73;;
66628;SDS011;53532;53.084;6.352;2022-08-21T01:28:15;12.70;;;8.18;;
66628;SDS011;53532;53.084;6.352;2022-08-21T01:30:42;13.60;;;9.05;;
66628;SDS011;53532;53.084;6.352;2022-08-21T01:33:08;12.15;;;8.35;;
66628;SDS011;53532;53.084;6.352;2022-08-21T01:35:35;12.38;;;8.57;;
66628;SDS011;53532;53.084;6.352;2022-08-21T01:38:02;12.95;;;8.57;;
66628;SDS011;53532;53.084;6.352;2022-08-21T01:40:29;14.75;;;9.30;;
66628;SDS011;53532;53.084;6.352;2022-08-21T01:42:55;13.70;;;9.30;;
66628;SDS011;53532;53.084;6.352;2022-08-21T01:45:21;13.23;;;9.60;;
66628;SDS011;53532;53.084;6.352;2022-08-21T01:47:48;14.25;;;9.70;;
66628;SDS011;53532;53.084;6.352;2022-08-21T01:50:15;17.45;;;10.23;;
66628;SDS011;53532;53.084;6.352;2022-08-21T01:52:42;16.65;;;10.70;;
66628;SDS011;53532;53.084;6.352;2022-08-21T01:55:10;14.25;;;9.13;;
66628;SDS011;53532;53.084;6.352;2022-08-21T01:57:36;15.00;;;9.60;;
66628;SDS011;53532;53.084;6.352;2022-08-21T02:00:03;14.75;;;9.73;;
66628;SDS011;53532;53.084;6.352;2022-08-21T02:02:29;15.30;;;10.50;;
66628;SDS011;53532;53.084;6.352;2022-08-21T02:04:55;18.45;;;11.98;;
66628;SDS011;53532;53.084;6.352;2022-08-21T02:07:22;20.85;;;11.88;;
66628;SDS011;53532;53.084;6.352;2022-08-21T02:09:48;17.60;;;11.48;;
66628;SDS011;53532;53.084;6.352;2022-08-21T02:12:15;14.07;;;10.45;;
66628;SDS011;53532;53.084;6.352;2022-08-21T02:14:41;18.10;;;11.02;;
66628;SDS011;53532;53.084;6.352;2022-08-21T02:17:08;16.08;;;10.45;;
66628;SDS011;53532;53.084;6.352;2022-08-21T02:19:34;18.38;;;11.18;;
66628;SDS011;53532;53.084;6.352;2022-08-21T02:22:00;15.27;;;10.85;;
66628;SDS011;53532;53.084;6.352;2022-08-21T02:24:26;14.85;;;10.32;;
66628;SDS011;53532;53.084;6.352;2022-08-21T02:26:53;16.48;;;11.38;;
66628;SDS011;53532;53.084;6.352;2022-08-21T02:29:20;15.63;;;11.63;;
66628;SDS011;53532;53.084;6.352;2022-08-21T02:31:46;16.73;;;11.55;;
66628;SDS011;53532;53.084;6.352;2022-08-21T02:34:12;17.10;;;11.77;;
66628;SDS011;53532;53.084;6.352;2022-08-21T02:36:38;17.85;;;11.73;;
66628;SDS011;53532;53.084;6.352;2022-08-21T02:39:05;20.63;;;12.70;;
66628;SDS011;53532;53.084;6.352;2022-08-21T02:41:31;18.23;;;12.35;;
66628;SDS011;53532;53.084;6.352;2022-08-21T02:43:57;17.35;;;11.43;;
66628;SDS011;53532;53.084;6.352;2022-08-21T02:46:24;17.33;;;12.82;;
66628;SDS011;53532;53.084;6.352;2022-08-21T02:48:51;17.55;;;12.82;;
66628;SDS011;53532;53.084;6.352;2022-08-21T02:51:18;19.77;;;12.50;;
66628;SDS011;53532;53.084;6.352;2022-08-21T02:53:45;17.13;;;12.45;;
66628;SDS011;53532;53.084;6.352;2022-08-21T02:56:13;19.40;;;12.40;;
66628;SDS011;53532;53.084;6.352;2022-08-21T02:58:42;20.60;;;13.40;;
66628;SDS011;53532;53.084;6.352;2022-08-21T03:01:08;19.63;;;12.85;;
66628;SDS011;53532;53.084;6.352;2022-08-21T03:03:36;21.08;;;12.63;;
66628;SDS011;53532;53.084;6.352;2022-08-21T03:06:03;18.70;;;12.48;;
66628;SDS011;53532;53.084;6.352;2022-08-21T03:08:29;17.95;;;12.30;;
66628;SDS011;53532;53.084;6.352;2022-08-21T03:10:56;19.70;;;12.60;;
66628;SDS011;53532;53.084;6.352;2022-08-21T03:13:23;19.90;;;12.80;;
66628;SDS011;53532;53.084;6.352;2022-08-21T03:15:49;20.58;;;12.05;;
66628;SDS011;53532;53.084;6.352;2022-08-21T03:18:16;18.13;;;13.02;;
66628;SDS011;53532;53.084;6.352;2022-08-21T03:20:44;20.35;;;12.63;;
66628;SDS011;53532;53.084;6.352;2022-08-21T03:23:10;20.17;;;13.07;;
66628;SDS011;53532;53.084;6.352;2022-08-21T03:25:37;22.15;;;12.93;;
66628;SDS011;53532;53.084;6.352;2022-08-21T03:28:04;18.50;;;12.85;;
66628;SDS011;53532;53.084;6.352;2022-08-21T03:30:30;21.30;;;13.23;;
66628;SDS011;53532;53.084;6.352;2022-08-21T03:32:57;19.33;;;12.30;;
66628;SDS011;53532;53.084;6.352;2022-08-21T03:35:23;19.83;;;12.38;;
66628;SDS011;53532;53.084;6.352;2022-08-21T03:37:51;22.70;;;13.27;;
66628;SDS011;53532;53.084;6.352;2022-08-21T03:40:18;21.98;;;13.77;;
66628;SDS011;53532;53.084;6.352;2022-08-21T03:42:45;20.27;;;13.55;;
66628;SDS011;53532;53.084;6.352;2022-08-21T03:45:12;22.80;;;13.38;;
66628;SDS011;53532;53.084;6.352;2022-08-21T03:47:38;19.95;;;12.43;;
66628;SDS011;53532;53.084;6.352;2022-08-21T03:50:05;19.17;;;12.60;;
66628;SDS011;53532;53.084;6.352;2022-08-21T03:52:32;18.63;;;12.35;;
66628;SDS011;53532;53.084;6.352;2022-08-21T03:55:00;20.30;;;13.43;;
66628;SDS011;53532;53.084;6.352;2022-08-21T03:57:26;20.38;;;12.60;;
66628;SDS011;53532;53.084;6.352;2022-08-21T03:59:52;21.27;;;12.93;;
66628;SDS011;53532;53.084;6.352;2022-08-21T04:02:19;21.67;;;13.40;;
66628;SDS011;53532;53.084;6.352;2022-08-21T04:04:46;24.60;;;13.60;;
66628;SDS011;53532;53.084;6.352;2022-08-21T04:07:12;21.83;;;13.15;;
66628;SDS011;53532;53.084;6.352;2022-08-21T04:09:38;21.15;;;12.75;;
66628;SDS011;53532;53.084;6.352;2022-08-21T04:12:06;20.20;;;12.45;;
66628;SDS011;53532;53.084;6.352;2022-08-21T04:14:32;21.23;;;12.88;;
66628;SDS011;53532;53.084;6.352;2022-08-21T04:16:58;19.67;;;12.98;;
66628;SDS011;53532;53.084;6.352;2022-08-21T04:19:25;17.25;;;11.82;;
66628;SDS011;53532;53.084;6.352;2022-08-21T04:21:51;20.67;;;13.27;;
66628;SDS011;53532;53.084;6.352;2022-08-21T04:24:17;20.38;;;13.32;;
66628;SDS011;53532;53.084;6.352;2022-08-21T04:26:44;21.17;;;12.88;;
66628;SDS011;53532;53.084;6.352;2022-08-21T04:29:11;23.38;;;12.27;;
66628;SDS011;53532;53.084;6.352;2022-08-21T04:31:38;20.70;;;13.10;;
66628;SDS011;53532;53.084;6.352;2022-08-21T04:34:04;27.67;;;13.10;;
66628;SDS011;53532;53.084;6.352;2022-08-21T04:36:30;20.38;;;12.10;;
66628;SDS011;53532;53.084;6.352;2022-08-21T04:38:57;23.00;;;13.35;;
66628;SDS011;53532;53.084;6.352;2022-08-21T04:41:24;20.10;;;12.57;;
66628;SDS011;53532;53.084;6.352;2022-08-21T04:43:50;20.77;;;12.68;;
66628;SDS011;53532;53.084;6.352;2022-08-21T04:46:17;20.08;;;12.75;;
66628;SDS011;53532;53.084;6.352;2022-08-21T04:48:44;23.90;;;13.77;;
66628;SDS011;53532;53.084;6.352;2022-08-21T04:51:10;21.13;;;13.23;;
66628;SDS011;53532;53.084;6.352;2022-08-21T04:53:38;21.80;;;13.43;;
66628;SDS011;53532;53.084;6.352;2022-08-21T04:56:07;20.23;;;13.15;;
66628;SDS011;53532;53.084;6.352;2022-08-21T04:58:34;21.15;;;12.70;;
66628;SDS011;53532;53.084;6.352;2022-08-21T05:01:00;21.65;;;13.20;;
66628;SDS011;53532;53.084;6.352;2022-08-21T05:03:29;25.30;;;13.68;;
66628;SDS011;53532;53.084;6.352;2022-08-21T05:05:56;21.65;;;13.52;;
66628;SDS011;53532;53.084;6.352;2022-08-21T05:08:23;21.75;;;13.27;;
66628;SDS011;53532;53.084;6.352;2022-08-21T05:10:50;22.92;;;14.00;;
66628;SDS011;53532;53.084;6.352;2022-08-21T05:13:17;19.90;;;13.75;;
66628;SDS011;53532;53.084;6.352;2022-08-21T05:15:43;22.25;;;14.07;;
66628;SDS011;53532;53.084;6.352;2022-08-21T05:18:09;26.00;;;14.25;;
66628;SDS011;53532;53.084;6.352;2022-08-21T05:20:37;23.33;;;13.15;;
66628;SDS011;53532;53.084;6.352;2022-08-21T05:23:06;20.35;;;13.10;;
66628;SDS011;53532;53.084;6.352;2022-08-21T05:25:33;21.55;;;13.98;;
66628;SDS011;53532;53.084;6.352;2022-08-21T05:27:59;24.42;;;14.25;;
66628;SDS011;53532;53.084;6.352;2022-08-21T05:30:25;26.10;;;14.35;;
66628;SDS011;53532;53.084;6.352;2022-08-21T05:32:55;23.55;;;14.00;;
66628;SDS011;53532;53.084;6.352;2022-08-21T05:35:21;22.65;;;14.20;;
66628;SDS011;53532;53.084;6.352;2022-08-21T05:37:49;23.85;;;13.55;;
66628;SDS011;53532;53.084;6.352;2022-08-21T05:40:15;28.17;;;14.75;;
66628;SDS011;53532;53.084;6.352;2022-08-21T05:42:41;25.58;;;14.07;;
66628;SDS011;53532;53.084;6.352;2022-08-21T05:45:08;23.77;;;13.43;;
66628;SDS011;53532;53.084;6.352;2022-08-21T05:47:34;22.85;;;13.80;;
66628;SDS011;53532;53.084;6.352;2022-08-21T05:50:00;26.00;;;14.32;;
66628;SDS011;53532;53.084;6.352;2022-08-21T05:52:26;21.98;;;13.65;;
66628;SDS011;53532;53.084;6.352;2022-08-21T05:54:54;23.02;;;14.15;;
66628;SDS011;53532;53.084;6.352;2022-08-21T05:57:20;22.35;;;13.98;;
66628;SDS011;53532;53.084;6.352;2022-08-21T05:59:46;28.25;;;13.45;;
66628;SDS011;53532;53.084;6.352;2022-08-21T06:02:12;21.02;;;12.93;;
66628;SDS011;53532;53.084;6.352;2022-08-21T06:04:39;23.92;;;13.38;;
66628;SDS011;53532;53.084;6.352;2022-08-21T06:07:06;22.23;;;13.70;;
66628;SDS011;53532;53.084;6.352;2022-08-21T06:09:33;25.08;;;13.88;;
66628;SDS011;53532;53.084;6.352;2022-08-21T06:12:04;24.50;;;13.63;;
66628;SDS011;53532;53.084;6.352;2022-08-21T06:14:30;20.88;;;12.25;;
66628;SDS011;53532;53.084;6.352;2022-08-21T06:17:00;21.35;;;11.50;;
66628;SDS011;53532;53.084;6.352;2022-08-21T06:19:27;22.73;;;10.90;;
66628;SDS011;53532;53.084;6.352;2022-08-21T06:21:53;22.48;;;11.50;;
66628;SDS011;53532;53.084;6.352;2022-08-21T06:24:19;22.38;;;11.70;;
66628;SDS011;53532;53.084;6.352;2022-08-21T06:26:46;22.45;;;11.52;;
66628;SDS011;53532;53.084;6.352;2022-08-21T06:29:13;22.10;;;11.02;;
66628;SDS011;53532;53.084;6.352;2022-08-21T06:31:42;25.30;;;11.70;;
66628;SDS011;53532;53.084;6.352;2022-08-21T06:34:08;18.17;;;10.32;;
66628;SDS011;53532;53.084;6.352;2022-08-21T06:36:34;21.73;;;11.02;;
66628;SDS011;53532;53.084;6.352;2022-08-21T06:39:00;17.95;;;10.40;;
66628;SDS011;53532;53.084;6.352;2022-08-21T06:41:27;19.08;;;10.55;;
66628;SDS011;53532;53.084;6.352;2022-08-21T06:43:53;21.23;;;10.13;;
66628;SDS011;53532;53.084;6.352;2022-08-21T06:46:21;22.85;;;10.30;;
66628;SDS011;53532;53.084;6.352;2022-08-21T06:48:48;15.57;;;9.70;;
66628;SDS011;53532;53.084;6.352;2022-08-21T06:51:14;20.92;;;9.02;;
66628;SDS011;53532;53.084;6.352;2022-08-21T06:53:40;22.42;;;10.00;;
66628;SDS011;53532;53.084;6.352;2022-08-21T06:56:06;17.35;;;9.10;;
66628;SDS011;53532;53.084;6.352;2022-08-21T06:58:33;18.42;;;8.45;;
66628;SDS011;53532;53.084;6.352;2022-08-21T07:00:59;19.77;;;8.02;;
66628;SDS011;53532;53.084;6.352;2022-08-21T07:03:28;18.67;;;7.93;;
66628;SDS011;53532;53.084;6.352;2022-08-21T07:05:55;16.65;;;7.40;;
66628;SDS011;53532;53.084;6.352;2022-08-21T07:08:23;17.15;;;8.00;;
66628;SDS011;53532;53.084;6.352;2022-08-21T07:10:50;17.05;;;7.55;;
66628;SDS011;53532;53.084;6.352;2022-08-21T07:13:16;18.75;;;7.13;;
66628;SDS011;53532;53.084;6.352;2022-08-21T07:15:43;15.07;;;6.78;;
66628;SDS011;53532;53.084;6.352;2022-08-21T07:18:10;17.30;;;7.10;;
66628;SDS011;53532;53.084;6.352;2022-08-21T07:20:38;14.25;;;6.40;;
66628;SDS011;53532;53.084;6.352;2022-08-21T07:23:05;18.88;;;5.90;;
66628;SDS011;53532;53.084;6.352;2022-08-21T07:25:31;14.48;;;5.95;;
66628;SDS011;53532;53.084;6.352;2022-08-21T07:27:58;13.75;;;6.43;;
66628;SDS011;53532;53.084;6.352;2022-08-21T07:30:24;16.77;;;6.25;;
66628;SDS011;53532;53.084;6.352;2022-08-21T07:32:50;13.32;;;5.55;;
66628;SDS011;53532;53.084;6.352;2022-08-21T07:35:16;16.60;;;5.55;;
66628;SDS011;53532;53.084;6.352;2022-08-21T07:37:44;15.18;;;6.03;;
66628;SDS011;53532;53.084;6.352;2022-08-21T07:40:10;11.77;;;5.30;;
66628;SDS011;53532;53.084;6.352;2022-08-21T07:42:39;13.23;;;5.18;;
66628;SDS011;53532;53.084;6.352;2022-08-21T07:45:06;9.95;;;4.88;;
66628;SDS011;53532;53.084;6.352;2022-08-21T07:47:32;15.57;;;5.03;;
66628;SDS011;53532;53.084;6.352;2022-08-21T07:49:58;16.88;;;5.28;;
66628;SDS011;53532;53.084;6.352;2022-08-21T07:52:25;14.65;;;4.55;;
66628;SDS011;53532;53.084;6.352;2022-08-21T07:54:52;12.05;;;4.70;;
66628;SDS011;53532;53.084;6.352;2022-08-21T07:57:18;15.38;;;5.55;;
66628;SDS011;53532;53.084;6.352;2022-08-21T07:59:45;15.23;;;4.35;;
66628;SDS011;53532;53.084;6.352;2022-08-21T08:02:20;13.18;;;4.75;;
66628;SDS011;53532;53.084;6.352;2022-08-21T08:04:46;13.45;;;4.45;;
66628;SDS011;53532;53.084;6.352;2022-08-21T08:07:13;14.23;;;5.03;;
66628;SDS011;53532;53.084;6.352;2022-08-21T08:09:39;15.85;;;4.65;;
66628;SDS011;53532;53.084;6.352;2022-08-21T08:12:06;17.40;;;4.50;;
66628;SDS011;53532;53.084;6.352;2022-08-21T08:14:32;9.75;;;3.97;;
66628;SDS011;53532;53.084;6.352;2022-08-21T08:16:59;14.90;;;4.28;;
66628;SDS011;53532;53.084;6.352;2022-08-21T08:19:24;14.32;;;4.30;;
66628;SDS011;53532;53.084;6.352;2022-08-21T08:21:50;12.60;;;4.10;;
66628;SDS011;53532;53.084;6.352;2022-08-21T08:24:16;13.80;;;4.28;;
66628;SDS011;53532;53.084;6.352;2022-08-21T08:26:42;14.43;;;4.40;;
66628;SDS011;53532;53.084;6.352;2022-08-21T08:29:09;11.73;;;4.05;;
66628;SDS011;53532;53.084;6.352;2022-08-21T08:31:35;14.80;;;4.30;;
66628;SDS011;53532;53.084;6.352;2022-08-21T08:34:00;13.10;;;4.10;;
66628;SDS011;53532;53.084;6.352;2022-08-21T08:36:31;14.02;;;4.50;;
66628;SDS011;53532;53.084;6.352;2022-08-21T08:38:59;12.00;;;3.85;;
66628;SDS011;53532;53.084;6.352;2022-08-21T08:41:25;15.73;;;4.28;;
66628;SDS011;53532;53.084;6.352;2022-08-21T08:43:52;14.75;;;4.05;;
66628;SDS011;53532;53.084;6.352;2022-08-21T08:46:24;11.55;;;3.75;;
66628;SDS011;53532;53.084;6.352;2022-08-21T08:48:57;13.10;;;3.83;;
66628;SDS011;53532;53.084;6.352;2022-08-21T08:51:30;13.40;;;3.28;;
66628;SDS011;53532;53.084;6.352;2022-08-21T08:54:04;12.63;;;3.60;;
66628;SDS011;53532;53.084;6.352;2022-08-21T08:56:34;13.85;;;3.80;;
66628;SDS011;53532;53.084;6.352;2022-08-21T08:59:02;13.68;;;3.70;;
66628;SDS011;53532;53.084;6.352;2022-08-21T09:01:35;12.55;;;3.70;;
66628;SDS011;53532;53.084;6.352;2022-08-21T09:04:00;11.77;;;3.92;;
66628;SDS011;53532;53.084;6.352;2022-08-21T09:06:37;14.00;;;4.25;;
66628;SDS011;53532;53.084;6.352;2022-08-21T09:09:13;15.13;;;3.85;;
66628;SDS011;53532;53.084;6.352;2022-08-21T09:11:52;14.85;;;4.07;;
66628;SDS011;53532;53.084;6.352;2022-08-21T09:14:26;10.90;;;3.90;;
66628;SDS011;53532;53.084;6.352;2022-08-21T09:17:02;10.05;;;3.65;;
66628;SDS011;53532;53.084;6.352;2022-08-21T09:19:43;12.70;;;4.00;;
66628;SDS011;53532;53.084;6.352;2022-08-21T09:22:22;15.02;;;4.07;;
66628;SDS011;53532;53.084;6.352;2022-08-21T09:24:57;11.02;;;3.75;;
66628;SDS011;53532;53.084;6.352;2022-08-21T09:27:33;15.73;;;4.80;;
66628;SDS011;53532;53.084;6.352;2022-08-21T09:29:59;11.40;;;3.38;;
66628;SDS011;53532;53.084;6.352;2022-08-21T09:32:29;15.43;;;4.38;;
66628;SDS011;53532;53.084;6.352;2022-08-21T09:34:57;12.32;;;4.40;;
66628;SDS011;53532;53.084;6.352;2022-08-21T09:37:25;12.50;;;4.00;;
66628;SDS011;53532;53.084;6.352;2022-08-21T09:39:54;10.30;;;3.30;;
66628;SDS011;53532;53.084;6.352;2022-08-21T09:42:23;11.73;;;3.00;;
66628;SDS011;53532;53.084;6.352;2022-08-21T09:45:09;8.50;;;3.30;;
66628;SDS011;53532;53.084;6.352;2022-08-21T09:47:40;11.20;;;3.25;;
66628;SDS011;53532;53.084;6.352;2022-08-21T09:50:07;9.68;;;3.50;;
66628;SDS011;53532;53.084;6.352;2022-08-21T09:52:41;13.27;;;3.97;;
66628;SDS011;53532;53.084;6.352;2022-08-21T09:55:13;12.85;;;3.53;;
66628;SDS011;53532;53.084;6.352;2022-08-21T09:58:01;16.27;;;4.38;;
66628;SDS011;53532;53.084;6.352;2022-08-21T10:00:28;13.30;;;3.95;;
66628;SDS011;53532;53.084;6.352;2022-08-21T10:03:08;13.82;;;3.40;;
66628;SDS011;53532;53.084;6.352;2022-08-21T10:05:36;12.45;;;3.70;;
66628;SDS011;53532;53.084;6.352;2022-08-21T10:08:03;9.75;;;3.33;;
66628;SDS011;53532;53.084;6.352;2022-08-21T10:10:31;11.80;;;3.10;;
66628;SDS011;53532;53.084;6.352;2022-08-21T10:13:02;14.30;;;3.38;;
66628;SDS011;53532;53.084;6.352;2022-08-21T10:15:39;13.27;;;2.95;;
66628;SDS011;53532;53.084;6.352;2022-08-21T10:18:15;11.70;;;3.22;;
66628;SDS011;53532;53.084;6.352;2022-08-21T10:20:51;13.65;;;4.03;;
66628;SDS011;53532;53.084;6.352;2022-08-21T10:23:28;11.63;;;3.47;;
66628;SDS011;53532;53.084;6.352;2022-08-21T10:26:07;10.77;;;3.72;;
66628;SDS011;53532;53.084;6.352;2022-08-21T10:28:44;10.95;;;3.33;;
66628;SDS011;53532;53.084;6.352;2022-08-21T10:31:28;10.25;;;3.10;;
66628;SDS011;53532;53.084;6.352;2022-08-21T10:34:05;12.75;;;3.47;;
66628;SDS011;53532;53.084;6.352;2022-08-21T10:36:39;10.00;;;3.35;;
66628;SDS011;53532;53.084;6.352;2022-08-21T10:39:13;10.70;;;3.50;;
66628;SDS011;53532;53.084;6.352;2022-08-21T10:41:49;12.27;;;3.58;;
66628;SDS011;53532;53.084;6.352;2022-08-21T10:44:33;10.40;;;3.38;;
66628;SDS011;53532;53.084;6.352;2022-08-21T10:47:08;9.90;;;3.17;;
66628;SDS011;53532;53.084;6.352;2022-08-21T10:49:44;9.27;;;3.25;;
66628;SDS011;53532;53.084;6.352;2022-08-21T10:52:24;9.45;;;3.55;;
66628;SDS011;53532;53.084;6.352;2022-08-21T10:55:02;9.63;;;3.05;;
66628;SDS011;53532;53.084;6.352;2022-08-21T10:57:34;11.60;;;3.28;;
66628;SDS011;53532;53.084;6.352;2022-08-21T11:00:07;10.88;;;3.22;;
66628;SDS011;53532;53.084;6.352;2022-08-21T11:02:37;9.38;;;2.97;;
66628;SDS011;53532;53.084;6.352;2022-08-21T11:05:10;7.03;;;2.85;;
66628;SDS011;53532;53.084;6.352;2022-08-21T11:07:43;9.60;;;2.70;;
66628;SDS011;53532;53.084;6.352;2022-08-21T11:10:14;11.10;;;2.80;;
66628;SDS011;53532;53.084;6.352;2022-08-21T11:12:46;11.15;;;3.53;;
66628;SDS011;53532;53.084;6.352;2022-08-21T11:15:20;10.65;;;3.33;;
66628;SDS011;53532;53.084;6.352;2022-08-21T11:17:52;9.65;;;3.25;;
66628;SDS011;53532;53.084;6.352;2022-08-21T11:20:28;11.30;;;3.50;;
66628;SDS011;53532;53.084;6.352;2022-08-21T11:22:58;11.13;;;3.42;;
66628;SDS011;53532;53.084;6.352;2022-08-21T11:25:33;13.25;;;3.35;;
66628;SDS011;53532;53.084;6.352;2022-08-21T11:28:02;14.93;;;3.50;;
66628;SDS011;53532;53.084;6.352;2022-08-21T11:30:37;9.68;;;3.40;;
66628;SDS011;53532;53.084;6.352;2022-08-21T11:33:15;10.25;;;3.58;;
66628;SDS011;53532;53.084;6.352;2022-08-21T11:35:53;9.73;;;3.60;;
66628;SDS011;53532;53.084;6.352;2022-08-21T11:38:31;11.95;;;3.78;;
66628;SDS011;53532;53.084;6.352;2022-08-21T11:41:06;10.88;;;3.50;;
66628;SDS011;53532;53.084;6.352;2022-08-21T11:43:43;11.57;;;3.38;;
66628;SDS011;53532;53.084;6.352;2022-08-21T11:46:14;10.73;;;3.30;;
66628;SDS011;53532;53.084;6.352;2022-08-21T11:48:48;9.30;;;3.03;;
66628;SDS011;53532;53.084;6.352;2022-08-21T11:51:27;11.07;;;3.03;;
66628;SDS011;53532;53.084;6.352;2022-08-21T11:53:59;8.52;;;2.63;;
66628;SDS011;53532;53.084;6.352;2022-08-21T11:56:31;18.20;;;3.10;;
66628;SDS011;53532;53.084;6.352;2022-08-21T11:59:08;8.10;;;3.20;;
66628;SDS011;53532;53.084;6.352;2022-08-21T12:01:36;8.52;;;2.50;;
66628;SDS011;53532;53.084;6.352;2022-08-21T12:06:37;12.70;;;3.00;;
66628;SDS011;53532;53.084;6.352;2022-08-21T12:09:06;10.10;;;3.10;;
66628;SDS011;53532;53.084;6.352;2022-08-21T12:11:45;10.68;;;3.15;;
66628;SDS011;53532;53.084;6.352;2022-08-21T12:14:13;9.98;;;2.90;;
66628;SDS011;53532;53.084;6.352;2022-08-21T12:16:42;8.40;;;2.70;;
66628;SDS011;53532;53.084;6.352;2022-08-21T12:19:10;8.68;;;2.65;;
66628;SDS011;53532;53.084;6.352;2022-08-21T12:21:49;7.72;;;2.88;;
66628;SDS011;53532;53.084;6.352;2022-08-21T12:24:17;8.40;;;2.55;;
66628;SDS011;53532;53.084;6.352;2022-08-21T12:26:50;8.07;;;2.70;;
66628;SDS011;53532;53.084;6.352;2022-08-21T12:29:21;11.23;;;3.03;;
66628;SDS011;53532;53.084;6.352;2022-08-21T12:31:51;6.72;;;2.70;;
66628;SDS011;53532;53.084;6.352;2022-08-21T12:34:20;7.25;;;2.60;;
66628;SDS011;53532;53.084;6.352;2022-08-21T12:36:53;12.52;;;3.10;;
66628;SDS011;53532;53.084;6.352;2022-08-21T12:39:23;8.93;;;2.70;;
66628;SDS011;53532;53.084;6.352;2022-08-21T12:41:53;8.35;;;2.50;;
66628;SDS011;53532;53.084;6.352;2022-08-21T12:44:24;8.30;;;2.80;;
66628;SDS011;53532;53.084;6.352;2022-08-21T12:46:56;10.15;;;3.22;;
66628;SDS011;53532;53.084;6.352;2022-08-21T12:49:25;9.65;;;2.67;;
66628;SDS011;53532;53.084;6.352;2022-08-21T12:51:55;8.43;;;2.40;;
66628;SDS011;53532;53.084;6.352;2022-08-21T12:54:26;8.50;;;2.53;;
66628;SDS011;53532;53.084;6.352;2022-08-21T12:56:57;7.47;;;2.13;;
66628;SDS011;53532;53.084;6.352;2022-08-21T13:01:51;7.93;;;2.60;;
66628;SDS011;53532;53.084;6.352;2022-08-21T13:04:21;10.23;;;2.70;;
66628;SDS011;53532;53.084;6.352;2022-08-21T13:06:53;7.82;;;2.33;;
66628;SDS011;53532;53.084;6.352;2022-08-21T13:09:24;9.75;;;2.55;;
66628;SDS011;53532;53.084;6.352;2022-08-21T13:11:52;9.65;;;2.70;;
66628;SDS011;53532;53.084;6.352;2022-08-21T13:14:20;5.78;;;2.20;;
66628;SDS011;53532;53.084;6.352;2022-08-21T13:16:52;7.95;;;2.40;;
66628;SDS011;53532;53.084;6.352;2022-08-21T13:19:19;7.55;;;2.30;;
66628;SDS011;53532;53.084;6.352;2022-08-21T13:21:45;6.90;;;1.95;;
66628;SDS011;53532;53.084;6.352;2022-08-21T13:24:17;7.78;;;2.40;;
66628;SDS011;53532;53.084;6.352;2022-08-21T13:26:45;7.97;;;2.40;;
66628;SDS011;53532;53.084;6.352;2022-08-21T13:29:12;8.32;;;2.55;;
66628;SDS011;53532;53.084;6.352;2022-08-21T13:31:39;7.68;;;2.35;;
66628;SDS011;53532;53.084;6.352;2022-08-21T13:34:07;10.45;;;2.70;;
66628;SDS011;53532;53.084;6.352;2022-08-21T13:36:36;9.82;;;2.30;;
66628;SDS011;53532;53.084;6.352;2022-08-21T13:39:06;8.13;;;2.70;;
66628;SDS011;53532;53.084;6.352;2022-08-21T13:41:37;8.52;;;2.60;;
66628;SDS011;53532;53.084;6.352;2022-08-21T13:44:13;9.85;;;2.90;;
66628;SDS011;53532;53.084;6.352;2022-08-21T13:46:42;7.25;;;2.47;;
66628;SDS011;53532;53.084;6.352;2022-08-21T13:49:09;7.97;;;2.47;;
66628;SDS011;53532;53.084;6.352;2022-08-21T13:51:37;9.48;;;2.60;;
66628;SDS011;53532;53.084;6.352;2022-08-21T13:54:13;7.55;;;2.65;;
66628;SDS011;53532;53.084;6.352;2022-08-21T13:56:42;7.30;;;2.38;;
66628;SDS011;53532;53.084;6.352;2022-08-21T13:59:10;9.35;;;2.50;;
66628;SDS011;53532;53.084;6.352;2022-08-21T14:01:37;8.10;;;2.70;;
66628;SDS011;53532;53.084;6.352;2022-08-21T14:04:16;7.15;;;1.98;;
66628;SDS011;53532;53.084;6.352;2022-08-21T14:06:46;8.60;;;2.38;;
66628;SDS011;53532;53.084;6.352;2022-08-21T14:09:13;6.63;;;2.30;;
66628;SDS011;53532;53.084;6.352;2022-08-21T14:11:56;7.68;;;2.45;;
66628;SDS011;53532;53.084;6.352;2022-08-21T14:14:25;10.70;;;2.47;;
66628;SDS011;53532;53.084;6.352;2022-08-21T14:16:55;10.15;;;2.78;;
66628;SDS011;53532;53.084;6.352;2022-08-21T14:19:23;8.98;;;2.38;;
66628;SDS011;53532;53.084;6.352;2022-08-21T14:21:51;11.10;;;2.78;;
66628;SDS011;53532;53.084;6.352;2022-08-21T14:24:25;9.40;;;2.65;;
66628;SDS011;53532;53.084;6.352;2022-08-21T14:26:54;9.45;;;2.47;;
66628;SDS011;53532;53.084;6.352;2022-08-21T14:29:24;8.73;;;2.20;;
66628;SDS011;53532;53.084;6.352;2022-08-21T14:31:53;7.28;;;2.25;;
66628;SDS011;53532;53.084;6.352;2022-08-21T14:34:20;9.77;;;2.20;;
66628;SDS011;53532;53.084;6.352;2022-08-21T14:36:47;8.02;;;2.15;;
66628;SDS011;53532;53.084;6.352;2022-08-21T14:39:14;8.05;;;2.20;;
66628;SDS011;53532;53.084;6.352;2022-08-21T14:41:40;10.20;;;2.55;;
66628;SDS011;53532;53.084;6.352;2022-08-21T14:44:09;6.45;;;1.92;;
66628;SDS011;53532;53.084;6.352;2022-08-21T14:46:35;8.90;;;2.55;;
66628;SDS011;53532;53.084;6.352;2022-08-21T14:49:02;7.63;;;2.28;;